Atlanta, Kansas
Current Conditions -  °F | °C
As of 10:35 AM on Wednesday 22 Oct 2014 (Local Time) from KEQA Reporting Station
Clear Clear  
Wind Chill: 23°   Ceiling: Unl
Heat Index: 23°   Visibility: 10mi
Dew Point: 15°   Wind: 14mph
Humidity: 61%   Direction: 200°SSW
Pressure: 30.15"   Gusts: NA
Location:  37.44°N, 96.76°W
Report Text: KEQA 221535Z AUTO 20012KT 10SM CLR 23/15 A3015 RMK AO2
Loading
Personal Weather Stations






























Interactive Weather Map New forecast layout! Learn more

10-Day Weather Forecast

Advertisements
Track Severe Weather on mobile